Time;durP1;ratioP1;P1;durP2;ratioP2;P2;SDS_P1;SDS_P2;PMS_P1;PMS_P2;Temp;Humidity;BMP_temperature;BMP_pressure;BME280_temperature;BME280_humidity;BME280_pressure;Samples;Min_cycle;Max_cycle;Signal;HPM_P1;HPM_P2
2022/01/23 00:01:07;;;;;;;36.07;16.17;;;;;6.10;102838.00;;;;5051496;28;20219;-71
2022/01/23 00:03:54;;;;;;;41.20;16.97;;;;;6.20;102847.00;;;;5059280;28;20236;-69
2022/01/23 00:06:39;;;;;;;36.93;16.97;;;;;6.20;102834.00;;;;5070305;28;20861;-70
2022/01/23 00:09:26;;;;;;;43.80;16.60;;;;;6.20;102825.00;;;;5064854;28;20228;-69
2022/01/23 00:12:16;;;;;;;37.47;16.63;;;;;6.20;102821.00;;;;5060748;28;20366;-70
2022/01/23 00:18:08;;;;;;;33.70;15.37;;;;;6.20;102811.00;;;;5065170;28;20354;-72
2022/01/23 00:20:54;;;;;;;40.97;17.07;;;;;6.20;102809.00;;;;5059793;28;20228;-70
2022/01/23 00:32:50;;;;;;;35.70;15.17;;;;;5.80;102824.00;;;;5059031;28;20362;-70
2022/01/23 00:35:39;;;;;;;28.87;14.17;;;;;5.70;102791.00;;;;5064557;28;20236;-70
2022/01/23 00:38:25;;;;;;;36.60;15.93;;;;;5.70;102841.00;;;;5065018;28;20236;-69
2022/01/23 00:41:11;;;;;;;34.90;15.73;;;;;5.80;102838.00;;;;5060622;28;20583;-71
2022/01/23 00:43:57;;;;;;;37.43;16.07;;;;;5.80;102833.00;;;;5061940;28;20255;-67
2022/01/23 00:46:50;;;;;;;33.63;15.13;;;;;5.70;102830.00;;;;5062258;28;20227;-70
2022/01/23 00:49:37;;;;;;;33.27;14.93;;;;;5.70;102836.00;;;;5063991;28;20231;-69
2022/01/23 00:52:24;;;;;;;35.93;14.03;;;;;5.70;102847.00;;;;5061749;28;20232;-69
2022/01/23 00:55:10;;;;;;;37.83;15.50;;;;;5.90;102856.00;;;;5065072;28;20321;-69
2022/01/23 00:57:57;;;;;;;34.43;15.43;;;;;5.70;102837.00;;;;5063363;28;20227;-68
2022/01/23 01:00:44;;;;;;;37.87;14.83;;;;;5.70;102856.00;;;;5063287;28;20231;-69
2022/01/23 01:03:30;;;;;;;39.90;15.43;;;;;5.70;102861.00;;;;5064492;28;20239;-68
2022/01/23 01:06:18;;;;;;;31.57;15.00;;;;;5.70;102857.00;;;;5055636;28;20310;-67
2022/01/23 01:09:07;;;;;;;40.37;16.13;;;;;5.70;102856.00;;;;5065127;28;20224;-71
2022/01/23 01:11:59;;;;;;;34.80;14.63;;;;;5.70;102854.00;;;;5057704;28;20801;-71
2022/01/23 01:15:10;;;;;;;36.23;16.00;;;;;5.70;102847.00;;;;5057258;28;20224;-69
2022/01/23 01:30:30;;;;;;;26.30;12.03;;;;;5.60;102824.00;;;;5065625;28;20231;-70
2022/01/23 01:33:24;;;;;;;31.77;13.00;;;;;5.50;102813.00;;;;5062221;28;20354;-70
2022/01/23 01:36:25;;;;;;;33.03;14.40;;;;;5.40;102807.00;;;;5068009;28;20251;-70
2022/01/23 01:39:14;;;;;;;30.90;14.10;;;;;5.40;102802.00;;;;5063501;28;20706;-71
2022/01/23 01:42:00;;;;;;;31.13;14.43;;;;;5.40;102800.00;;;;5059320;28;20228;-68
2022/01/23 01:44:46;;;;;;;32.97;13.60;;;;;5.40;102810.00;;;;5057995;28;20709;-69
2022/01/23 01:47:32;;;;;;;34.73;13.77;;;;;5.50;102827.00;;;;5063033;28;20350;-70
2022/01/23 01:50:19;;;;;;;33.80;13.27;;;;;5.50;102824.00;;;;5058992;28;20323;-69
2022/01/23 01:53:05;;;;;;;39.70;14.27;;;;;5.40;102825.00;;;;5062145;28;20224;-69
2022/01/23 01:55:56;;;;;;;31.43;13.77;;;;;5.50;102823.00;;;;5063658;28;20359;-69
2022/01/23 02:11:06;;;;;;;28.67;13.23;;;;;5.40;102803.00;;;;5066807;28;20301;-69
2022/01/23 02:13:56;;;;;;;30.17;13.53;;;;;5.40;102802.00;;;;5063238;28;20306;-70
2022/01/23 02:17:12;;;;;;;31.03;12.63;;;;;5.40;102795.00;;;;5065593;28;20243;-70
2022/01/23 02:23:22;;;;;;;32.00;14.20;;;;;5.30;102792.00;;;;5061050;28;20732;-69
2022/01/23 02:50:49;;;;;;;33.43;14.13;;;;;5.30;102812.00;;;;5054342;28;20680;-69
2022/01/23 02:54:03;;;;;;;33.07;13.70;;;;;5.30;102813.00;;;;5058130;28;20224;-70
2022/01/23 02:56:51;;;;;;;34.40;14.30;;;;;5.40;102807.00;;;;5064728;28;20357;-71
2022/01/23 02:59:39;;;;;;;31.07;13.87;;;;;5.40;102819.00;;;;5066413;28;20371;-68
2022/01/23 03:02:33;;;;;;;34.83;13.87;;;;;5.40;102819.00;;;;5077366;28;20223;-73
2022/01/23 03:05:34;;;;;;;34.63;14.80;;;;;5.40;102806.00;;;;5093487;28;20285;-75
2022/01/23 03:08:27;;;;;;;30.40;13.43;;;;;5.30;102836.00;;;;5090017;28;20271;-74
2022/01/23 03:11:36;;;;;;;28.93;13.37;;;;;5.40;102827.00;;;;5091817;28;20227;-74
2022/01/23 03:14:34;;;;;;;35.47;13.90;;;;;5.40;102829.00;;;;5092087;28;20223;-73
2022/01/23 03:26:49;;;;;;;27.33;13.00;;;;;5.40;102818.00;;;;5096383;28;20219;-75
2022/01/23 03:29:54;;;;;;;32.43;13.53;;;;;5.40;102837.00;;;;5082064;28;20274;-73
2022/01/23 03:32:44;;;;;;;33.90;13.23;;;;;5.40;102839.00;;;;5061350;28;20224;-71
2022/01/23 03:35:30;;;;;;;33.63;13.37;;;;;5.40;102853.00;;;;5055675;28;20228;-72
2022/01/23 03:38:16;;;;;;;30.03;12.93;;;;;5.50;102847.00;;;;5057860;28;20785;-70
2022/01/23 03:41:04;;;;;;;30.33;14.30;;;;;5.40;102849.00;;;;5053473;28;20331;-70
2022/01/23 03:43:50;;;;;;;34.20;12.30;;;;;5.50;102849.00;;;;5053461;28;20232;-71
2022/01/23 03:47:00;;;;;;;28.13;13.07;;;;;5.50;102828.00;;;;5073970;28;20247;-73
2022/01/23 03:49:48;;;;;;;29.40;12.10;;;;;5.40;102856.00;;;;5058375;28;20228;-71
2022/01/23 03:52:35;;;;;;;33.10;13.60;;;;;5.60;102840.00;;;;5065002;28;20285;-72
2022/01/23 03:55:21;;;;;;;29.60;11.97;;;;;5.50;102845.00;;;;5065783;28;20231;-69
2022/01/23 03:58:08;;;;;;;34.23;13.30;;;;;5.60;102845.00;;;;5060800;28;20235;-71
2022/01/23 04:00:55;;;;;;;32.07;12.43;;;;;5.60;102856.00;;;;5062310;28;20577;-70
2022/01/23 04:03:41;;;;;;;28.53;12.70;;;;;5.60;102853.00;;;;5065001;28;20243;-71
2022/01/23 04:06:27;;;;;;;29.43;13.07;;;;;5.60;102846.00;;;;5065304;28;20242;-71
2022/01/23 04:09:13;;;;;;;26.23;12.83;;;;;5.60;102853.00;;;;5061924;28;20231;-70
2022/01/23 04:12:00;;;;;;;31.50;12.73;;;;;5.60;102849.00;;;;5059428;28;20223;-70
2022/01/23 04:14:55;;;;;;;28.90;12.27;;;;;5.60;102864.00;;;;5061156;28;20290;-70
2022/01/23 04:20:51;;;;;;;26.47;11.53;;;;;5.50;102853.00;;;;5059190;28;20591;-69
2022/01/23 04:33:14;;;;;;;30.27;13.90;;;;;5.60;102845.00;;;;5034254;28;20410;-71
2022/01/23 04:45:21;;;;;;;34.97;15.90;;;;;5.60;102848.00;;;;5061009;28;20718;-70
2022/01/23 05:00:35;;;;;;;45.27;16.60;;;;;5.70;102847.00;;;;5069080;28;20313;-70
2022/01/23 05:04:06;;;;;;;35.43;15.27;;;;;5.70;102846.00;;;;5065337;28;20236;-71
2022/01/23 05:07:00;;;;;;;38.67;15.47;;;;;5.70;102850.00;;;;5061465;28;20219;-71
2022/01/23 05:09:47;;;;;;;36.17;14.87;;;;;5.70;102856.00;;;;5070168;28;20224;-71
2022/01/23 05:12:34;;;;;;;39.83;15.90;;;;;5.70;102851.00;;;;5067922;28;20773;-70
2022/01/23 05:15:21;;;;;;;51.00;17.67;;;;;5.70;102854.00;;;;5065276;28;20312;-70
2022/01/23 05:18:07;;;;;;;51.63;19.70;;;;;5.70;102855.00;;;;5068109;28;20789;-71
2022/01/23 05:21:05;;;;;;;48.27;17.67;;;;;5.70;102859.00;;;;5063243;28;20223;-69
2022/01/23 05:23:52;;;;;;;45.53;16.40;;;;;5.70;102866.00;;;;5060959;28;20232;-70
2022/01/23 05:26:43;;;;;;;43.77;17.30;;;;;5.70;102860.00;;;;5068092;28;20302;-70
2022/01/23 05:29:29;;;;;;;49.33;17.47;;;;;5.70;102873.00;;;;5068397;28;20440;-68
2022/01/23 05:32:16;;;;;;;47.83;17.97;;;;;5.70;102856.00;;;;5068239;28;20239;-71
2022/01/23 05:35:03;;;;;;;50.67;18.60;;;;;5.70;102871.00;;;;5065022;28;20746;-71
2022/01/23 05:37:51;;;;;;;43.10;17.27;;;;;5.70;102874.00;;;;5060855;28;20230;-71
2022/01/23 05:40:39;;;;;;;49.30;17.83;;;;;5.70;102868.00;;;;5067777;28;20850;-69
2022/01/23 05:43:26;;;;;;;46.40;17.57;;;;;5.70;102870.00;;;;5067699;28;20734;-71
2022/01/23 05:46:12;;;;;;;45.30;17.47;;;;;5.70;102867.00;;;;5063681;28;20243;-70
2022/01/23 05:48:58;;;;;;;51.70;18.07;;;;;5.70;102865.00;;;;5064490;28;20270;-68
2022/01/23 05:51:45;;;;;;;46.87;17.57;;;;;5.70;102872.00;;;;5059655;28;20590;-71
2022/01/23 05:54:33;;;;;;;41.97;17.27;;;;;5.70;102876.00;;;;5065953;28;20359;-71
2022/01/23 05:57:21;;;;;;;45.70;17.63;;;;;5.70;102877.00;;;;5067236;28;20261;-73
2022/01/23 06:00:08;;;;;;;37.73;16.50;;;;;5.70;102875.00;;;;5066426;28;20298;-70
2022/01/23 06:02:54;;;;;;;37.10;14.30;;;;;5.70;102881.00;;;;5062035;28;20239;-71
2022/01/23 06:05:41;;;;;;;35.60;14.40;;;;;5.70;102878.00;;;;5073766;28;20382;-71
2022/01/23 06:08:27;;;;;;;36.17;15.60;;;;;5.70;102883.00;;;;5056975;28;20293;-70
2022/01/23 06:11:15;;;;;;;38.50;15.83;;;;;5.70;102867.00;;;;5063328;28;20235;-70
2022/01/23 06:14:02;;;;;;;41.73;15.47;;;;;5.70;102883.00;;;;5061541;28;20339;-69
2022/01/23 06:16:49;;;;;;;42.00;16.13;;;;;5.70;102883.00;;;;5067282;28;20230;-70
2022/01/23 06:19:36;;;;;;;41.83;16.63;;;;;5.70;102884.00;;;;5066262;28;20227;-70
2022/01/23 06:22:23;;;;;;;42.33;15.60;;;;;5.70;102873.00;;;;5043421;28;20275;-71
2022/01/23 06:25:12;;;;;;;40.93;16.67;;;;;5.70;102868.00;;;;5072959;28;20410;-71
2022/01/23 06:28:00;;;;;;;48.73;17.53;;;;;5.70;102887.00;;;;5061037;28;20366;-71
2022/01/23 06:30:47;;;;;;;37.70;15.47;;;;;5.70;102878.00;;;;5059225;28;20693;-71
2022/01/23 06:33:33;;;;;;;39.87;16.10;;;;;5.70;102884.00;;;;5066755;28;20278;-67
2022/01/23 06:36:19;;;;;;;38.87;16.03;;;;;5.70;102891.00;;;;5067019;28;20244;-71
2022/01/23 06:39:07;;;;;;;39.97;16.40;;;;;5.70;102885.00;;;;5065453;28;20227;-67
2022/01/23 06:41:54;;;;;;;37.07;15.00;;;;;5.70;102874.00;;;;5051205;28;20224;-70
2022/01/23 06:44:41;;;;;;;42.93;16.23;;;;;5.70;102896.00;;;;5056252;28;20281;-70
2022/01/23 06:47:27;;;;;;;38.87;15.63;;;;;5.70;102895.00;;;;5071976;28;20227;-68
2022/01/23 06:50:14;;;;;;;41.73;14.93;;;;;5.70;102887.00;;;;5070820;28;20692;-69
2022/01/23 06:53:05;;;;;;;42.57;16.47;;;;;5.70;102898.00;;;;5060304;28;20351;-71
2022/01/23 06:55:51;;;;;;;45.00;16.17;;;;;5.70;102873.00;;;;5053030;28;20661;-69
2022/01/23 06:58:37;;;;;;;41.07;17.30;;;;;5.70;102890.00;;;;5066924;28;20246;-68
2022/01/23 07:01:25;;;;;;;41.53;16.63;;;;;5.70;102891.00;;;;5063237;28;20306;-70
2022/01/23 07:04:12;;;;;;;43.53;16.43;;;;;5.70;102908.00;;;;5065928;28;20626;-71
2022/01/23 07:06:58;;;;;;;47.33;16.83;;;;;5.70;102882.00;;;;5058390;28;20291;-70
2022/01/23 07:09:45;;;;;;;41.57;16.87;;;;;5.70;102897.00;;;;5056029;28;20426;-70
2022/01/23 07:12:31;;;;;;;38.73;14.93;;;;;5.70;102896.00;;;;5061550;28;20243;-68
2022/01/23 07:15:17;;;;;;;43.80;16.30;;;;;5.60;102912.00;;;;5062529;28;20713;-65
2022/01/23 07:18:05;;;;;;;41.47;16.00;;;;;5.70;102908.00;;;;5062738;28;20231;-70
2022/01/23 07:20:52;;;;;;;38.00;14.93;;;;;5.60;102932.00;;;;5058448;28;20251;-70
2022/01/23 07:23:38;;;;;;;37.23;15.57;;;;;5.60;102928.00;;;;5065502;28;20282;-69
2022/01/23 07:26:26;;;;;;;44.70;16.17;;;;;5.70;102943.00;;;;5060542;28;20248;-71
2022/01/23 07:29:14;;;;;;;42.13;15.97;;;;;5.60;102930.00;;;;5054131;28;20228;-69
2022/01/23 07:32:07;;;;;;;45.57;16.90;;;;;5.70;102934.00;;;;5057438;28;20960;-71
2022/01/23 07:34:55;;;;;;;42.03;15.73;;;;;5.70;102936.00;;;;5070342;28;20227;-71
2022/01/23 07:37:41;;;;;;;37.17;14.57;;;;;5.70;102938.00;;;;5065983;28;20223;-70
2022/01/23 07:40:28;;;;;;;40.60;14.73;;;;;5.70;102936.00;;;;5065696;28;20592;-70
2022/01/23 07:43:14;;;;;;;42.53;15.73;;;;;5.70;102943.00;;;;5065839;28;21001;-71
2022/01/23 07:46:00;;;;;;;47.50;16.50;;;;;5.70;102939.00;;;;5065874;28;20370;-70
2022/01/23 07:48:47;;;;;;;41.93;15.37;;;;;5.70;102942.00;;;;5061122;28;20677;-70
2022/01/23 07:51:34;;;;;;;39.17;15.40;;;;;5.70;102940.00;;;;5064693;28;20236;-71
2022/01/23 07:54:22;;;;;;;42.57;15.70;;;;;5.70;102939.00;;;;5065141;28;20256;-68
2022/01/23 07:57:08;;;;;;;45.40;17.60;;;;;5.70;102938.00;;;;5061092;28;20228;-71
2022/01/23 07:59:54;;;;;;;51.33;18.30;;;;;5.70;102939.00;;;;5061629;28;20703;-69
2022/01/23 08:02:41;;;;;;;55.97;18.13;;;;;5.70;102949.00;;;;5054227;28;20404;-70
2022/01/23 08:05:27;;;;;;;50.47;18.07;;;;;5.80;102944.00;;;;5061641;28;20353;-70
2022/01/23 08:08:15;;;;;;;43.33;17.60;;;;;5.80;102957.00;;;;5056990;28;20228;-70
2022/01/23 08:11:01;;;;;;;48.53;16.67;;;;;5.70;102964.00;;;;5054594;28;20222;-71
2022/01/23 08:13:48;;;;;;;51.23;17.63;;;;;5.70;102960.00;;;;5052059;28;20596;-72
2022/01/23 08:16:35;;;;;;;46.33;17.03;;;;;5.80;102947.00;;;;5065208;28;20255;-70
2022/01/23 08:19:21;;;;;;;51.20;17.80;;;;;5.80;102954.00;;;;5062409;28;20227;-69
2022/01/23 08:22:08;;;;;;;51.93;17.90;;;;;5.80;102946.00;;;;5060003;28;20223;-70
2022/01/23 08:24:56;;;;;;;50.87;17.33;;;;;5.90;102946.00;;;;5059284;28;20243;-70
2022/01/23 08:27:42;;;;;;;57.97;18.67;;;;;5.90;102959.00;;;;5056723;28;20752;-70
2022/01/23 08:30:29;;;;;;;45.07;17.63;;;;;5.90;102952.00;;;;5079498;28;20353;-70
2022/01/23 08:33:15;;;;;;;54.30;18.83;;;;;5.90;102966.00;;;;5068867;28;20235;-71
2022/01/23 08:36:01;;;;;;;60.50;19.57;;;;;5.90;102968.00;;;;5056753;28;20224;-70
2022/01/23 08:38:47;;;;;;;55.27;19.40;;;;;6.00;102979.00;;;;5056620;28;20235;-70
2022/01/23 08:41:50;;;;;;;53.93;19.43;;;;;6.00;102978.00;;;;5066291;28;20782;-70
2022/01/23 08:44:37;;;;;;;63.93;18.90;;;;;6.10;102981.00;;;;5068084;28;20228;-69
2022/01/23 08:47:24;;;;;;;50.60;18.40;;;;;6.10;102979.00;;;;5070389;28;20311;-71
2022/01/23 08:50:10;;;;;;;58.80;19.00;;;;;6.20;102993.00;;;;5069193;28;20714;-69
2022/01/23 08:52:56;;;;;;;56.70;18.67;;;;;6.20;102992.00;;;;5062230;28;20821;-71
2022/01/23 08:55:43;;;;;;;56.73;18.27;;;;;6.20;102978.00;;;;5068701;28;20220;-70
2022/01/23 08:58:30;;;;;;;53.73;18.80;;;;;6.20;102988.00;;;;5068931;28;20228;-71
2022/01/23 09:01:17;;;;;;;60.87;18.37;;;;;6.20;102990.00;;;;5065102;28;20318;-69
2022/01/23 09:04:03;;;;;;;57.97;19.40;;;;;6.30;102982.00;;;;5062710;28;20280;-67
2022/01/23 09:06:49;;;;;;;51.60;19.33;;;;;6.30;102987.00;;;;5061474;28;20729;-70
2022/01/23 09:09:38;;;;;;;55.37;17.93;;;;;6.30;102982.00;;;;5068626;28;20251;-69
2022/01/23 09:12:41;;;;;;;47.97;17.27;;;;;6.30;102988.00;;;;5064198;28;20231;-70
2022/01/23 09:15:30;;;;;;;56.20;18.50;;;;;6.40;102985.00;;;;5066758;28;20838;-65
2022/01/23 09:18:16;;;;;;;46.10;17.10;;;;;6.40;102996.00;;;;5068939;28;20606;-70
2022/01/23 09:21:04;;;;;;;42.37;16.67;;;;;6.40;102987.00;;;;5064546;28;20251;-70
2022/01/23 09:23:50;;;;;;;53.23;17.83;;;;;6.50;102977.00;;;;5060260;28;20235;-69
2022/01/23 09:26:37;;;;;;;57.90;19.23;;;;;6.50;102990.00;;;;5067033;28;20247;-70
2022/01/23 09:29:31;;;;;;;48.70;17.17;;;;;6.50;102989.00;;;;5066987;28;20657;-70
2022/01/23 09:32:21;;;;;;;46.03;17.33;;;;;6.50;102988.00;;;;5063835;28;20770;-67
2022/01/23 09:35:08;;;;;;;47.83;17.90;;;;;6.50;102987.00;;;;5061058;28;20243;-71
2022/01/23 09:37:54;;;;;;;41.00;16.17;;;;;6.50;102983.00;;;;5073294;28;20996;-71
2022/01/23 09:40:45;;;;;;;45.63;17.97;;;;;6.70;102990.00;;;;5065906;28;20350;-73
2022/01/23 09:43:32;;;;;;;48.83;16.80;;;;;6.70;102994.00;;;;5066543;28;20300;-72
2022/01/23 09:46:19;;;;;;;47.90;17.27;;;;;6.70;102993.00;;;;5063697;28;20251;-71
2022/01/23 09:49:07;;;;;;;55.17;17.67;;;;;6.80;103008.00;;;;5066563;28;20603;-71
2022/01/23 09:51:56;;;;;;;52.20;17.33;;;;;6.60;103005.00;;;;5059642;28;20248;-72
2022/01/23 09:54:45;;;;;;;47.53;17.23;;;;;6.70;103005.00;;;;5067279;28;20236;-71
2022/01/23 09:57:32;;;;;;;46.53;16.87;;;;;6.70;103007.00;;;;5066313;28;20235;-69
2022/01/23 10:00:24;;;;;;;50.27;17.37;;;;;6.90;103009.00;;;;5055165;28;20232;-70
2022/01/23 10:03:10;;;;;;;51.20;17.97;;;;;6.80;103008.00;;;;5053666;28;20231;-71
2022/01/23 10:05:58;;;;;;;54.00;18.57;;;;;6.70;103017.00;;;;5053389;28;20232;-72
2022/01/23 10:08:45;;;;;;;52.03;19.20;;;;;6.80;103008.00;;;;5056529;28;20228;-72
2022/01/23 10:11:35;;;;;;;50.57;17.60;;;;;6.80;103009.00;;;;5070135;28;20722;-71
2022/01/23 10:14:21;;;;;;;45.97;17.40;;;;;6.90;103015.00;;;;5065896;28;20622;-70
2022/01/23 10:17:09;;;;;;;53.33;17.70;;;;;6.80;103014.00;;;;5061512;28;20796;-72
2022/01/23 10:19:55;;;;;;;48.37;17.40;;;;;6.90;103013.00;;;;5058806;28;20884;-71
2022/01/23 10:22:49;;;;;;;51.57;17.30;;;;;7.00;103021.00;;;;5049032;27;20985;-71
2022/01/23 10:25:41;;;;;;;53.20;17.87;;;;;6.90;103020.00;;;;5049870;28;20817;-70
2022/01/23 10:28:29;;;;;;;49.57;18.17;;;;;6.90;103021.00;;;;5054935;28;20254;-71
2022/01/23 10:31:16;;;;;;;42.43;17.03;;;;;6.90;103020.00;;;;5074340;28;20680;-70
2022/01/23 10:34:02;;;;;;;52.43;17.33;;;;;6.90;103014.00;;;;5051155;28;20735;-69
2022/01/23 10:36:49;;;;;;;53.33;16.97;;;;;6.90;103016.00;;;;5059681;28;20953;-71
2022/01/23 10:39:46;;;;;;;45.33;16.10;;;;;7.00;103024.00;;;;5056969;28;20227;-71
2022/01/23 10:48:45;;;;;;;44.20;16.60;;;;;7.20;103016.00;;;;5049922;28;20223;-71
2022/01/23 10:51:35;;;;;;;47.67;16.40;;;;;7.30;103008.00;;;;5053987;28;20240;-72
2022/01/23 10:54:23;;;;;;;41.93;14.97;;;;;7.30;103003.00;;;;5047938;28;20279;-72
2022/01/23 10:57:11;;;;;;;46.03;16.80;;;;;7.30;103003.00;;;;5050586;28;20290;-68
2022/01/23 10:59:57;;;;;;;41.37;15.97;;;;;7.30;103009.00;;;;5048900;28;20790;-72
2022/01/23 11:02:44;;;;;;;46.77;16.83;;;;;7.40;103014.00;;;;5043071;28;20247;-71
2022/01/23 11:05:34;;;;;;;41.87;17.00;;;;;7.40;102998.00;;;;5057372;28;20217;-71
2022/01/23 11:08:22;;;;;;;44.83;17.37;;;;;7.50;102993.00;;;;5058093;28;20723;-73
2022/01/23 11:11:09;;;;;;;43.20;17.23;;;;;7.30;103006.00;;;;5054305;28;20645;-73
2022/01/23 11:17:22;;;;;;;47.50;18.10;;;;;7.50;102997.00;;;;5010672;28;20600;-72
2022/01/23 11:20:09;;;;;;;44.10;16.67;;;;;7.60;102990.00;;;;5066578;28;20228;-71
2022/01/23 11:23:02;;;;;;;42.67;16.60;;;;;7.60;102991.00;;;;5052667;28;20282;-70
2022/01/23 11:26:09;;;;;;;43.60;17.30;;;;;7.70;102975.00;;;;5044410;28;20237;-71
2022/01/23 11:28:57;;;;;;;43.00;16.77;;;;;7.70;102982.00;;;;5045355;28;20360;-70
2022/01/23 11:31:44;;;;;;;36.17;15.87;;;;;7.60;102981.00;;;;5043607;28;20228;-70
2022/01/23 11:34:32;;;;;;;36.77;16.00;;;;;7.80;102972.00;;;;5046214;28;20719;-66
2022/01/23 11:37:19;;;;;;;40.97;17.10;;;;;8.00;102972.00;;;;5038157;28;20229;-70
2022/01/23 11:40:21;;;;;;;37.40;15.43;;;;;7.90;102972.00;;;;5032831;28;20289;-71
2022/01/23 11:55:33;;;;;;;36.37;15.10;;;;;7.80;102960.00;;;;5033582;28;20601;-71
2022/01/23 11:58:35;;;;;;;38.37;15.43;;;;;7.70;102953.00;;;;5044028;28;20233;-72
2022/01/23 12:01:25;;;;;;;36.20;14.77;;;;;7.90;102969.00;;;;5042580;28;20232;-71
2022/01/23 12:04:18;;;;;;;37.33;14.90;;;;;7.90;102964.00;;;;5037307;28;20225;-71
2022/01/23 12:07:28;;;;;;;35.17;15.30;;;;;7.80;102965.00;;;;5040926;28;20337;-70
2022/01/23 12:10:22;;;;;;;31.33;13.27;;;;;7.80;102969.00;;;;5031393;28;20233;-70
2022/01/23 12:13:44;;;;;;;32.07;13.37;;;;;7.80;102967.00;;;;5040583;28;20645;-71
2022/01/23 12:16:51;;;;;;;31.93;14.40;;;;;7.80;102961.00;;;;5041449;28;20228;-68
2022/01/23 12:19:46;;;;;;;39.07;15.07;;;;;7.70;102963.00;;;;5040254;28;20239;-70
2022/01/23 12:22:40;;;;;;;40.10;16.17;;;;;7.80;102950.00;;;;5041026;28;20323;-71
2022/01/23 12:25:30;;;;;;;37.07;15.07;;;;;7.70;102973.00;;;;5039647;28;20681;-70
2022/01/23 12:28:21;;;;;;;35.50;15.53;;;;;7.90;102958.00;;;;5040468;28;20247;-71
2022/01/23 12:31:22;;;;;;;35.43;14.70;;;;;7.80;102967.00;;;;5037782;28;20225;-71
2022/01/23 12:34:10;;;;;;;38.83;14.57;;;;;7.70;102956.00;;;;5048058;28;20232;-71
2022/01/23 12:36:57;;;;;;;35.57;14.10;;;;;7.80;102954.00;;;;5042585;28;20213;-70
2022/01/23 12:39:46;;;;;;;34.03;14.90;;;;;7.70;102953.00;;;;5037965;28;20699;-72
2022/01/23 12:43:06;;;;;;;33.13;15.13;;;;;7.70;102946.00;;;;5042280;28;20233;-69
2022/01/23 12:45:56;;;;;;;33.07;13.40;;;;;7.60;102941.00;;;;5040419;28;20298;-71
2022/01/23 12:48:48;;;;;;;34.30;14.13;;;;;7.50;102942.00;;;;5046413;28;20343;-71
2022/01/23 12:51:42;;;;;;;34.70;14.07;;;;;7.50;102946.00;;;;5033999;28;20703;-73
2022/01/23 12:54:31;;;;;;;33.87;14.90;;;;;7.60;102950.00;;;;5042734;28;20221;-70
2022/01/23 12:57:20;;;;;;;31.43;14.17;;;;;7.50;102947.00;;;;5038343;28;20324;-72
2022/01/23 13:00:11;;;;;;;31.20;13.13;;;;;7.50;102920.00;;;;5036163;28;20267;-70
2022/01/23 13:02:58;;;;;;;32.30;14.13;;;;;7.50;102939.00;;;;5042763;28;20232;-71
2022/01/23 13:05:46;;;;;;;26.90;12.73;;;;;7.40;102941.00;;;;5036537;28;20359;-71
2022/01/23 13:08:44;;;;;;;33.20;12.70;;;;;7.50;102940.00;;;;5044015;28;20287;-70
2022/01/23 13:11:52;;;;;;;30.10;13.77;;;;;7.60;102941.00;;;;5035083;28;20224;-70
2022/01/23 13:14:52;;;;;;;26.43;12.40;;;;;7.60;102932.00;;;;5038703;28;20965;-69
2022/01/23 13:17:50;;;;;;;32.37;14.97;;;;;7.50;102935.00;;;;5041342;28;20710;-71
2022/01/23 13:27:55;;;;;;;31.27;12.73;;;;;7.50;102937.00;;;;5045203;28;20233;-71
2022/01/23 13:30:35;;;;;;;27.80;12.23;;;;;7.50;102941.00;;;;5044969;28;20232;-72
2022/01/23 13:33:23;;;;;;;28.07;12.00;;;;;7.50;102945.00;;;;5046099;28;20736;-72
2022/01/23 13:36:11;;;;;;;25.43;11.30;;;;;7.60;102944.00;;;;5046366;28;20267;-72
2022/01/23 13:38:59;;;;;;;23.20;11.67;;;;;7.50;102940.00;;;;5045541;28;20291;-73
2022/01/23 13:42:00;;;;;;;25.30;11.17;;;;;7.50;102933.00;;;;5048633;28;20318;-72
2022/01/23 13:51:28;;;;;;;27.47;11.13;;;;;7.40;102948.00;;;;4981608;28;20227;-73
2022/01/23 13:57:47;;;;;;;21.97;10.07;;;;;7.40;102951.00;;;;5047424;28;20326;-71
2022/01/23 14:00:33;;;;;;;21.73;10.37;;;;;7.40;102955.00;;;;5044984;28;20236;-72
2022/01/23 14:03:19;;;;;;;23.70;10.73;;;;;7.40;102953.00;;;;5040916;28;20237;-72
2022/01/23 14:06:06;;;;;;;21.50;10.23;;;;;7.40;102939.00;;;;5045842;28;20229;-72
2022/01/23 14:09:04;;;;;;;24.67;11.33;;;;;7.40;102937.00;;;;5039151;28;20234;-72
2022/01/23 14:11:52;;;;;;;21.27;10.17;;;;;7.40;102939.00;;;;5045763;28;20642;-72
2022/01/23 14:14:50;;;;;;;24.83;10.30;;;;;7.30;102934.00;;;;5045330;28;20767;-72
2022/01/23 14:17:39;;;;;;;22.70;10.10;;;;;7.30;102931.00;;;;5045956;28;20316;-72
2022/01/23 14:20:25;;;;;;;20.00;9.73;;;;;7.40;102938.00;;;;5043157;28;20232;-70
2022/01/23 14:23:14;;;;;;;21.23;10.03;;;;;7.30;102928.00;;;;5045546;28;20237;-73
2022/01/23 14:26:06;;;;;;;25.00;11.00;;;;;7.30;102929.00;;;;5040026;28;20248;-72
2022/01/23 14:28:54;;;;;;;23.83;10.23;;;;;7.30;102926.00;;;;5039161;28;20359;-72
2022/01/23 14:31:43;;;;;;;20.77;9.80;;;;;7.30;102925.00;;;;5046535;28;20358;-72
2022/01/23 14:34:29;;;;;;;23.77;10.40;;;;;7.30;102922.00;;;;5046647;28;20236;-71
2022/01/23 14:37:25;;;;;;;22.10;10.07;;;;;7.30;102913.00;;;;5047455;28;20244;-71
2022/01/23 14:40:15;;;;;;;21.60;9.43;;;;;7.20;102926.00;;;;5033392;28;20745;-70
2022/01/23 14:43:05;;;;;;;21.00;9.87;;;;;7.20;102937.00;;;;5035500;28;20735;-70
2022/01/23 14:45:54;;;;;;;20.67;8.80;;;;;7.20;102928.00;;;;5051683;28;20636;-66
2022/01/23 14:48:47;;;;;;;21.03;9.20;;;;;7.10;102928.00;;;;5050341;28;20237;-69
2022/01/23 14:51:34;;;;;;;22.70;9.30;;;;;7.10;102925.00;;;;5044484;28;20273;-65
2022/01/23 14:54:22;;;;;;;20.93;9.47;;;;;7.10;102933.00;;;;5051889;28;20236;-68
2022/01/23 14:57:15;;;;;;;18.57;8.77;;;;;7.10;102924.00;;;;5044914;28;20811;-70
2022/01/23 15:00:05;;;;;;;19.27;9.07;;;;;7.10;102921.00;;;;5045259;28;20232;-70
2022/01/23 15:02:55;;;;;;;19.90;9.27;;;;;7.10;102913.00;;;;5048480;28;20256;-68
2022/01/23 15:05:42;;;;;;;20.87;9.27;;;;;7.10;102919.00;;;;5045102;28;20237;-69
2022/01/23 15:08:29;;;;;;;19.43;9.10;;;;;7.00;102923.00;;;;5044849;28;20233;-69
2022/01/23 15:11:15;;;;;;;25.60;10.17;;;;;7.10;102919.00;;;;5048594;28;20236;-70
2022/01/23 15:14:02;;;;;;;25.27;9.77;;;;;7.00;102925.00;;;;5042770;28;20307;-71
2022/01/23 15:16:50;;;;;;;21.60;9.73;;;;;7.00;102932.00;;;;5049146;28;20260;-69
2022/01/23 15:19:38;;;;;;;23.03;9.57;;;;;7.00;102933.00;;;;5048253;28;20228;-72
2022/01/23 15:22:24;;;;;;;22.53;10.47;;;;;7.00;102930.00;;;;5048538;28;20232;-65
2022/01/23 15:25:12;;;;;;;20.33;9.87;;;;;7.00;102942.00;;;;5048191;28;20245;-70
2022/01/23 15:27:58;;;;;;;20.77;9.33;;;;;6.90;102940.00;;;;5042918;28;20834;-68
2022/01/23 15:30:45;;;;;;;22.90;10.40;;;;;6.90;102945.00;;;;5046136;28;20233;-71
2022/01/23 15:33:31;;;;;;;23.30;10.43;;;;;6.90;102935.00;;;;5047989;28;20233;-70
2022/01/23 15:36:19;;;;;;;21.57;10.27;;;;;6.90;102932.00;;;;5048474;28;20225;-67
2022/01/23 15:39:06;;;;;;;19.67;9.60;;;;;6.90;102937.00;;;;5043073;28;20363;-70
2022/01/23 15:41:52;;;;;;;20.07;9.03;;;;;6.90;102936.00;;;;5049749;28;20991;-66
2022/01/23 15:44:40;;;;;;;20.10;9.27;;;;;6.80;102929.00;;;;5048209;28;20234;-70
2022/01/23 15:47:26;;;;;;;19.50;8.73;;;;;6.80;102938.00;;;;5047866;28;20232;-70
2022/01/23 15:50:15;;;;;;;20.50;9.37;;;;;6.80;102937.00;;;;5048370;28;20233;-69
2022/01/23 15:53:02;;;;;;;21.63;9.80;;;;;6.80;102934.00;;;;5042448;28;20232;-71
2022/01/23 15:55:49;;;;;;;24.27;10.23;;;;;6.80;102935.00;;;;5048141;28;20224;-69
2022/01/23 15:58:35;;;;;;;20.00;9.30;;;;;6.80;102934.00;;;;5048040;28;20236;-71
2022/01/23 16:01:22;;;;;;;21.97;9.70;;;;;6.80;102939.00;;;;5043955;28;20719;-70
2022/01/23 16:04:08;;;;;;;19.70;8.90;;;;;6.70;102930.00;;;;5049426;28;20255;-69
2022/01/23 16:06:55;;;;;;;20.87;8.83;;;;;6.70;102932.00;;;;5041213;28;20235;-70
2022/01/23 16:09:42;;;;;;;21.07;10.17;;;;;6.70;102942.00;;;;5048437;28;20291;-70
2022/01/23 16:12:29;;;;;;;16.43;7.93;;;;;6.70;102931.00;;;;5047533;28;20766;-68
2022/01/23 16:15:23;;;;;;;18.33;8.50;;;;;6.70;102940.00;;;;5047926;28;20236;-72
2022/01/23 16:18:10;;;;;;;16.93;8.33;;;;;6.60;102916.00;;;;5040482;28;20228;-70